Time;durP1;ratioP1;P1;durP2;ratioP2;P2;SDS_P1;SDS_P2;PMS_P1;PMS_P2;Temp;Humidity;BMP_temperature;BMP_pressure;BME280_temperature;BME280_humidity;BME280_pressure;Samples;Min_cycle;Max_cycle;Signal;HPM_P1;HPM_P2
2022/11/10 00:01:08;;;;;;;18.73;13.07;;;10.20;99.90;;;;;;5015797;28;20209;-85
2022/11/10 00:03:35;;;;;;;18.50;13.93;;;10.20;99.90;;;;;;5013483;28;20437;-88
2022/11/10 00:06:04;;;;;;;20.17;13.10;;;10.20;99.90;;;;;;5011695;28;20033;-88
2022/11/10 00:08:30;;;;;;;17.80;13.55;;;10.20;99.90;;;;;;5013586;28;20366;-89
2022/11/10 00:10:56;;;;;;;17.75;14.63;;;10.20;99.90;;;;;;5017018;28;20096;-92
2022/11/10 00:13:32;;;;;;;19.58;15.15;;;10.20;99.90;;;;;;5019266;28;20108;-90
2022/11/10 00:18:50;;;;;;;19.60;14.15;;;10.20;99.90;;;;;;5021813;28;20060;-88
2022/11/10 00:21:17;;;;;;;20.25;13.15;;;10.20;99.90;;;;;;5017767;28;20411;-88
2022/11/10 00:23:44;;;;;;;22.40;14.43;;;10.30;99.90;;;;;;5000550;28;20029;-88
2022/11/10 00:26:16;;;;;;;25.00;14.38;;;10.20;99.90;;;;;;5018581;28;20033;-90
2022/11/10 00:28:42;;;;;;;17.60;13.10;;;10.20;99.90;;;;;;5020886;28;20018;-91
2022/11/10 00:31:09;;;;;;;18.67;12.73;;;10.30;99.90;;;;;;5024624;28;20072;-85
2022/11/10 00:33:37;;;;;;;18.98;14.43;;;10.30;99.90;;;;;;5016205;28;20025;-85
2022/11/10 00:36:03;;;;;;;17.00;13.32;;;10.30;99.90;;;;;;4997938;28;20046;-84
2022/11/10 00:38:29;;;;;;;24.13;13.45;;;10.30;99.90;;;;;;5005163;28;20027;-84
2022/11/10 00:40:56;;;;;;;15.13;11.82;;;10.20;99.90;;;;;;4998798;28;20526;-84
2022/11/10 00:43:22;;;;;;;17.55;14.48;;;10.20;99.90;;;;;;4995560;28;20033;-80
2022/11/10 00:45:48;;;;;;;18.23;14.38;;;10.20;99.90;;;;;;5013380;28;20030;-83
2022/11/10 00:48:14;;;;;;;18.92;14.10;;;10.20;99.90;;;;;;5013879;28;20026;-84
2022/11/10 00:50:40;;;;;;;22.23;14.07;;;10.20;99.90;;;;;;5014203;28;20014;-85
2022/11/10 00:53:06;;;;;;;16.38;13.82;;;10.20;99.90;;;;;;5019015;28;20033;-83
2022/11/10 00:55:32;;;;;;;19.85;14.13;;;10.20;99.90;;;;;;5016643;28;20566;-85
2022/11/10 00:57:58;;;;;;;18.52;14.77;;;10.20;99.90;;;;;;5017044;28;20041;-87
2022/11/10 01:00:24;;;;;;;19.90;14.52;;;10.20;99.90;;;;;;5020379;28;20026;-86
2022/11/10 01:02:49;;;;;;;23.25;15.43;;;10.20;99.90;;;;;;5021833;28;20018;-88
2022/11/10 01:05:15;;;;;;;19.75;16.20;;;10.20;99.90;;;;;;5022282;28;20025;-89
2022/11/10 01:07:41;;;;;;;21.90;15.75;;;10.20;99.90;;;;;;5022764;28;20026;-87
2022/11/10 01:10:07;;;;;;;21.13;14.75;;;10.20;99.90;;;;;;5018211;28;20061;-83
2022/11/10 01:12:33;;;;;;;22.13;15.10;;;10.20;99.90;;;;;;5000440;28;20040;-83
2022/11/10 01:15:00;;;;;;;16.95;13.48;;;10.20;99.90;;;;;;5016524;28;20395;-85
2022/11/10 01:17:29;;;;;;;21.60;13.85;;;10.20;99.90;;;;;;5015949;28;20117;-88
2022/11/10 01:20:07;;;;;;;;;;;;;;;;;;;;;
2022/11/10 01:22:34;;;;;;;20.90;14.63;;;10.20;99.90;;;;;;5002592;28;20512;-85
2022/11/10 01:25:00;;;;;;;22.60;16.13;;;10.20;99.90;;;;;;5014201;28;20022;-86
2022/11/10 01:27:25;;;;;;;20.73;16.40;;;10.10;99.90;;;;;;5015042;28;20029;-85
2022/11/10 01:29:51;;;;;;;21.02;15.40;;;10.20;99.90;;;;;;5002216;28;20036;-85
2022/11/10 01:32:17;;;;;;;21.67;15.43;;;10.20;99.90;;;;;;5029405;28;20026;-85
2022/11/10 01:34:44;;;;;;;29.23;17.45;;;10.20;99.90;;;;;;5013035;28;20052;-85
2022/11/10 01:37:11;;;;;;;21.77;14.50;;;10.20;99.90;;;;;;5014105;28;20045;-86
2022/11/10 01:39:37;;;;;;;24.30;16.60;;;10.20;99.90;;;;;;5016231;28;20419;-85
2022/11/10 01:42:03;;;;;;;22.52;15.50;;;10.20;99.90;;;;;;5011528;28;20030;-86
2022/11/10 01:44:29;;;;;;;23.15;15.90;;;10.20;99.90;;;;;;5029093;28;20032;-84
2022/11/10 01:46:55;;;;;;;24.27;15.88;;;10.20;99.90;;;;;;5023606;28;20471;-84
2022/11/10 01:49:24;;;;;;;22.13;15.57;;;10.10;99.90;;;;;;5015479;28;20476;-85
2022/11/10 01:52:07;;;;;;;24.58;16.35;;;10.10;99.90;;;;;;5015650;28;20022;-85
2022/11/10 01:54:47;;;;;;;21.00;15.80;;;10.10;99.90;;;;;;5014839;28;20026;-84
2022/11/10 01:57:15;;;;;;;21.63;16.58;;;10.10;99.90;;;;;;5006895;28;20053;-84
2022/11/10 01:59:46;;;;;;;20.30;16.27;;;10.00;99.90;;;;;;5018776;28;20463;-84
2022/11/10 02:02:22;;;;;;;23.70;16.05;;;10.00;99.90;;;;;;5027066;28;20029;-84
2022/11/10 02:04:51;;;;;;;18.63;14.77;;;10.10;99.90;;;;;;5020007;28;20434;-85
2022/11/10 02:07:18;;;;;;;19.58;16.55;;;10.00;99.90;;;;;;5015133;28;20032;-86
2022/11/10 02:09:44;;;;;;;27.77;18.17;;;10.00;99.90;;;;;;5013518;28;20105;-85
2022/11/10 02:12:10;;;;;;;25.08;17.48;;;10.00;99.90;;;;;;5013060;28;20719;-86
2022/11/10 02:14:37;;;;;;;21.30;15.68;;;10.00;99.90;;;;;;5015258;28;20010;-85
2022/11/10 02:17:03;;;;;;;25.98;18.00;;;10.00;99.90;;;;;;5014016;28;20042;-85
2022/11/10 02:19:28;;;;;;;21.58;16.23;;;10.00;99.90;;;;;;5013404;28;20024;-86
2022/11/10 02:21:54;;;;;;;22.33;15.40;;;10.00;99.90;;;;;;5013818;28;20046;-85
2022/11/10 02:24:20;;;;;;;21.05;17.25;;;10.00;99.90;;;;;;5013600;28;20018;-87
2022/11/10 02:26:51;;;;;;;22.70;17.23;;;10.00;99.90;;;;;;5013691;28;20083;-86
2022/11/10 02:29:17;;;;;;;18.95;15.57;;;10.10;99.90;;;;;;5013269;28;20078;-85
2022/11/10 02:31:43;;;;;;;21.10;15.95;;;10.10;99.90;;;;;;5000240;28;20076;-85
2022/11/10 02:34:09;;;;;;;24.02;15.95;;;10.10;99.90;;;;;;5017511;28;20029;-86
2022/11/10 02:36:35;;;;;;;24.60;17.95;;;10.10;99.90;;;;;;5014041;28;20413;-87
2022/11/10 02:39:01;;;;;;;23.02;15.60;;;10.00;99.90;;;;;;5019711;28;20024;-86
2022/11/10 02:41:27;;;;;;;20.73;15.65;;;10.00;99.90;;;;;;5014743;28;20068;-86
2022/11/10 02:43:54;;;;;;;22.20;16.27;;;10.00;99.90;;;;;;5014299;28;20378;-86
2022/11/10 02:46:20;;;;;;;19.17;15.45;;;9.90;99.90;;;;;;5012944;28;20026;-88
2022/11/10 02:48:46;;;;;;;22.27;16.25;;;9.90;99.90;;;;;;5013272;28;20025;-86
2022/11/10 02:51:12;;;;;;;24.73;17.88;;;9.90;99.90;;;;;;5013904;28;20092;-87
2022/11/10 02:53:37;;;;;;;19.02;14.98;;;9.90;99.90;;;;;;5013312;28;20037;-87
2022/11/10 02:56:04;;;;;;;18.15;13.80;;;9.90;99.90;;;;;;5014189;28;20057;-89
2022/11/10 02:58:30;;;;;;;22.20;17.10;;;9.90;99.90;;;;;;5013454;28;20034;-86
2022/11/10 03:00:59;;;;;;;22.48;15.57;;;9.80;99.90;;;;;;5024329;28;20033;-87
2022/11/10 03:03:26;;;;;;;23.80;17.77;;;9.90;99.90;;;;;;5031869;28;20026;-86
2022/11/10 03:05:51;;;;;;;21.58;16.25;;;9.90;99.90;;;;;;5025594;28;20024;-86
2022/11/10 03:08:17;;;;;;;22.17;17.52;;;9.90;99.90;;;;;;5029839;28;20025;-86
2022/11/10 03:10:43;;;;;;;23.65;17.27;;;9.80;99.90;;;;;;5012245;28;20022;-86
2022/11/10 03:13:09;;;;;;;20.55;15.32;;;9.80;99.90;;;;;;5015918;28;20022;-87
2022/11/10 03:15:35;;;;;;;27.02;15.73;;;9.80;99.90;;;;;;5015781;28;20026;-87
2022/11/10 03:18:03;;;;;;;20.88;16.48;;;9.80;99.90;;;;;;5012436;28;20499;-87
2022/11/10 03:20:29;;;;;;;24.50;16.73;;;9.80;99.90;;;;;;5012943;28;20383;-87
2022/11/10 03:23:05;;;;;;;23.17;17.33;;;9.80;99.90;;;;;;5012898;28;20041;-86
2022/11/10 03:25:31;;;;;;;22.98;17.35;;;9.80;99.90;;;;;;5013318;28;20025;-88
2022/11/10 03:27:56;;;;;;;26.23;16.85;;;9.80;99.90;;;;;;5008594;28;20022;-87
2022/11/10 03:30:22;;;;;;;23.70;15.70;;;9.80;99.90;;;;;;5009276;28;20033;-86
2022/11/10 03:32:48;;;;;;;21.30;15.60;;;9.80;99.90;;;;;;5032966;28;20026;-87
2022/11/10 03:35:15;;;;;;;23.98;17.75;;;9.80;99.90;;;;;;5014129;28;20062;-87
2022/11/10 03:37:44;;;;;;;20.95;17.27;;;9.80;99.90;;;;;;4995814;28;20124;-87
2022/11/10 03:40:10;;;;;;;24.88;17.00;;;9.80;99.90;;;;;;5013349;28;20057;-86
2022/11/10 03:42:44;;;;;;;22.60;17.33;;;9.80;99.90;;;;;;5013038;28;20017;-87
2022/11/10 03:45:11;;;;;;;23.35;17.20;;;9.80;99.90;;;;;;5015857;28;20731;-86
2022/11/10 03:47:38;;;;;;;28.02;17.25;;;9.90;99.90;;;;;;5015406;28;20121;-86
2022/11/10 03:50:04;;;;;;;21.02;13.98;;;9.80;99.90;;;;;;5017019;28;20038;-86
2022/11/10 03:52:30;;;;;;;19.97;16.00;;;9.80;99.90;;;;;;5017511;28;20028;-87
2022/11/10 03:54:56;;;;;;;23.30;16.60;;;9.80;99.90;;;;;;5016326;28;20816;-86
2022/11/10 03:57:22;;;;;;;21.88;16.02;;;9.80;99.90;;;;;;5016646;28;20041;-87
2022/11/10 03:59:48;;;;;;;23.42;17.10;;;9.70;99.90;;;;;;5016735;28;20022;-86
2022/11/10 04:02:14;;;;;;;19.83;15.93;;;9.70;99.90;;;;;;5003738;28;20026;-87
2022/11/10 04:10:11;;;;;;;27.40;16.90;;;9.80;99.90;;;;;;5018279;28;20088;-87
2022/11/10 04:18:25;;;;;;;26.15;16.40;;;9.80;99.90;;;;;;5019109;28;20056;-85
2022/11/10 04:20:59;;;;;;;21.02;17.70;;;9.70;99.90;;;;;;5028955;28;20049;-87
2022/11/10 04:23:33;;;;;;;20.80;17.02;;;9.70;99.90;;;;;;5029592;28;20052;-86
2022/11/10 04:28:49;;;;;;;25.13;17.13;;;9.70;99.90;;;;;;5021831;28;20041;-88
2022/11/10 04:31:17;;;;;;;24.65;18.13;;;9.70;99.90;;;;;;5021053;28;20025;-86
2022/11/10 04:33:44;;;;;;;22.00;18.02;;;9.60;99.90;;;;;;5020115;28;20077;-89
2022/11/10 04:36:13;;;;;;;23.48;17.02;;;9.60;99.90;;;;;;5024882;28;20088;-88
2022/11/10 04:38:39;;;;;;;23.33;18.23;;;9.60;99.90;;;;;;5023544;28;20038;-88
2022/11/10 04:41:06;;;;;;;25.50;17.83;;;9.50;99.90;;;;;;5017041;28;20022;-90
2022/11/10 04:43:33;;;;;;;27.13;19.50;;;9.50;99.90;;;;;;5020571;28;20018;-87
2022/11/10 04:46:01;;;;;;;25.67;17.50;;;9.50;99.90;;;;;;5002455;28;20049;-88
2022/11/10 04:48:28;;;;;;;25.95;20.20;;;9.50;99.90;;;;;;5018777;28;20034;-92
2022/11/10 04:51:05;;;;;;;25.95;19.70;;;9.50;99.90;;;;;;5020038;28;20029;-90
2022/11/10 04:53:32;;;;;;;24.83;19.33;;;9.40;99.90;;;;;;5017595;28;20072;-89
2022/11/10 04:55:57;;;;;;;24.67;17.27;;;9.40;99.90;;;;;;4999837;28;20033;-90
2022/11/10 04:58:23;;;;;;;26.45;19.60;;;9.40;99.90;;;;;;5018639;28;20030;-88
2022/11/10 05:00:52;;;;;;;25.40;19.35;;;9.40;99.90;;;;;;5017650;28;20033;-86
2022/11/10 05:03:18;;;;;;;26.25;18.40;;;9.40;99.90;;;;;;4999266;28;20479;-88
2022/11/10 05:05:44;;;;;;;30.40;19.10;;;9.30;99.90;;;;;;5016391;28;20025;-88
2022/11/10 05:08:12;;;;;;;28.60;19.40;;;9.30;99.90;;;;;;5017978;28;20026;-86
2022/11/10 05:10:38;;;;;;;24.55;18.65;;;9.40;99.90;;;;;;5010924;28;20112;-87
2022/11/10 05:13:05;;;;;;;25.33;17.60;;;9.30;99.90;;;;;;5007016;28;20052;-89
2022/11/10 05:15:31;;;;;;;25.02;19.42;;;9.30;99.90;;;;;;5003474;28;20113;-91
2022/11/10 05:17:58;;;;;;;31.83;19.67;;;9.20;99.90;;;;;;5009101;28;20034;-88
2022/11/10 05:20:25;;;;;;;26.60;18.10;;;9.20;99.90;;;;;;5023269;28;20064;-85
2022/11/10 05:25:39;;;;;;;25.70;16.92;;;9.10;99.90;;;;;;5011517;28;20056;-87
2022/11/10 05:28:06;;;;;;;24.63;16.83;;;9.10;99.90;;;;;;5024358;28;20109;-84
2022/11/10 05:30:32;;;;;;;22.35;15.95;;;9.10;99.90;;;;;;5030644;28;20026;-86
2022/11/10 05:32:58;;;;;;;25.98;16.85;;;9.10;99.90;;;;;;5015719;28;20030;-89
2022/11/10 05:35:24;;;;;;;22.65;17.05;;;9.00;99.90;;;;;;5014266;28;20368;-86
2022/11/10 05:37:50;;;;;;;24.25;17.33;;;9.00;99.90;;;;;;5013841;28;20091;-85
2022/11/10 05:40:16;;;;;;;22.13;15.55;;;9.00;99.90;;;;;;5015537;28;20029;-86
2022/11/10 05:42:53;;;;;;;23.10;16.65;;;9.10;99.90;;;;;;5016316;28;20057;-86
2022/11/10 05:45:21;;;;;;;26.00;17.23;;;9.10;99.90;;;;;;5016978;28;20041;-87
2022/11/10 05:47:47;;;;;;;22.85;15.88;;;9.10;99.90;;;;;;5015397;28;20450;-89
2022/11/10 05:50:13;;;;;;;21.95;16.27;;;9.20;99.90;;;;;;5015065;28;20032;-85
2022/11/10 05:52:43;;;;;;;27.63;17.85;;;9.20;99.90;;;;;;5015590;28;20020;-86
2022/11/10 05:55:09;;;;;;;18.27;16.23;;;9.30;99.90;;;;;;5013082;28;20026;-90
2022/11/10 05:57:35;;;;;;;21.45;15.05;;;9.30;99.90;;;;;;5002970;28;20080;-88
2022/11/10 06:00:01;;;;;;;22.20;17.65;;;9.30;99.90;;;;;;5013511;28;20006;-87
2022/11/10 06:02:27;;;;;;;24.83;14.97;;;9.30;99.90;;;;;;5017610;28;20152;-87
2022/11/10 06:04:53;;;;;;;24.02;15.75;;;9.20;99.90;;;;;;5015914;28;20069;-86
2022/11/10 06:07:19;;;;;;;23.42;13.95;;;9.20;99.90;;;;;;5012778;28;20471;-87
2022/11/10 06:09:45;;;;;;;23.58;14.73;;;9.20;99.90;;;;;;5015808;28;20030;-88
2022/11/10 06:12:10;;;;;;;23.92;16.55;;;9.20;99.90;;;;;;5023399;28;20440;-87
2022/11/10 06:14:36;;;;;;;24.58;15.38;;;9.20;99.90;;;;;;5014916;28;20025;-87
2022/11/10 06:17:02;;;;;;;22.40;13.85;;;9.20;99.90;;;;;;4996989;28;20053;-87
2022/11/10 06:19:28;;;;;;;22.42;14.05;;;9.20;99.90;;;;;;5014834;28;20416;-88
2022/11/10 06:21:54;;;;;;;21.67;14.90;;;9.10;99.90;;;;;;5015213;28;20049;-89
2022/11/10 06:24:20;;;;;;;25.70;14.77;;;9.10;99.90;;;;;;5015659;28;20010;-90
2022/11/10 06:26:45;;;;;;;25.08;17.35;;;9.10;99.90;;;;;;5014781;28;20135;-87
2022/11/10 06:29:11;;;;;;;28.33;16.77;;;9.10;99.90;;;;;;5000440;28;20025;-87
2022/11/10 06:31:37;;;;;;;21.35;13.98;;;9.20;99.90;;;;;;5014537;28;20040;-89
2022/11/10 06:34:07;;;;;;;25.92;14.00;;;9.10;99.90;;;;;;5019307;28;20037;-86
2022/11/10 06:36:33;;;;;;;19.88;12.88;;;9.20;99.90;;;;;;5041130;28;20056;-89
2022/11/10 06:38:59;;;;;;;21.65;13.25;;;9.30;99.90;;;;;;5035503;28;20026;-88
2022/11/10 06:41:25;;;;;;;22.77;14.90;;;9.20;99.70;;;;;;5030520;28;20018;-85
2022/11/10 06:43:50;;;;;;;23.67;13.55;;;9.20;99.90;;;;;;5027415;28;20018;-85
2022/11/10 06:46:16;;;;;;;18.00;12.77;;;9.20;99.90;;;;;;5017618;28;20030;-88
2022/11/10 06:48:42;;;;;;;28.38;16.67;;;9.20;99.70;;;;;;5016426;28;20025;-87
2022/11/10 06:51:08;;;;;;;25.10;15.07;;;9.20;99.70;;;;;;5016268;28;20018;-88
2022/11/10 06:53:34;;;;;;;20.13;15.25;;;9.30;99.90;;;;;;5017256;28;20048;-87
2022/11/10 06:55:59;;;;;;;20.45;14.80;;;9.40;99.90;;;;;;5008213;28;20025;-89
2022/11/10 06:58:25;;;;;;;21.13;12.85;;;9.40;99.60;;;;;;5012565;28;20033;-88
2022/11/10 07:00:51;;;;;;;25.83;14.00;;;9.50;99.40;;;;;;4997398;28;20057;-88
2022/11/10 07:03:17;;;;;;;23.75;15.27;;;9.50;99.50;;;;;;5015513;28;20534;-89
2022/11/10 07:05:43;;;;;;;20.70;14.20;;;9.60;99.40;;;;;;5030204;28;20034;-86
2022/11/10 07:08:15;;;;;;;25.42;14.60;;;9.60;99.40;;;;;;5011828;28;20452;-84
2022/11/10 07:10:42;;;;;;;24.92;15.13;;;9.70;99.20;;;;;;5000640;28;20050;-88
2022/11/10 07:13:09;;;;;;;21.90;13.88;;;9.80;98.80;;;;;;5010508;28;20030;-90
2022/11/10 07:15:35;;;;;;;20.73;13.45;;;9.80;98.70;;;;;;5017958;28;20030;-87
2022/11/10 07:18:04;;;;;;;20.77;12.93;;;9.70;98.40;;;;;;5025116;28;20038;-89
2022/11/10 07:20:31;;;;;;;21.42;15.02;;;9.80;98.50;;;;;;5008372;28;20043;-83
2022/11/10 07:22:58;;;;;;;25.85;15.02;;;9.80;98.40;;;;;;4997982;28;20046;-86
2022/11/10 07:25:24;;;;;;;21.63;15.52;;;9.80;98.60;;;;;;4998268;28;20022;-85
2022/11/10 07:27:54;;;;;;;22.40;15.00;;;9.90;98.50;;;;;;4997066;28;20023;-86
2022/11/10 07:30:20;;;;;;;20.00;14.90;;;9.90;98.30;;;;;;4994780;28;20022;-83
2022/11/10 07:32:46;;;;;;;28.38;15.88;;;10.00;98.30;;;;;;5011035;28;20030;-89
2022/11/10 07:35:12;;;;;;;23.33;15.30;;;10.00;98.00;;;;;;5015158;28;20544;-88
2022/11/10 07:37:38;;;;;;;24.27;15.23;;;10.00;98.10;;;;;;5014629;28;20395;-89
2022/11/10 07:40:04;;;;;;;24.17;14.55;;;10.30;98.20;;;;;;5016485;28;20026;-89
2022/11/10 07:42:30;;;;;;;17.92;14.77;;;10.60;97.60;;;;;;5012022;28;20061;-89
2022/11/10 07:45:05;;;;;;;21.75;15.43;;;10.80;96.70;;;;;;5016779;28;20030;-89
2022/11/10 07:47:33;;;;;;;28.67;15.43;;;10.80;96.30;;;;;;5013638;28;20026;-87
2022/11/10 07:49:59;;;;;;;21.92;14.07;;;10.70;96.30;;;;;;5014008;28;20065;-88
2022/11/10 07:52:24;;;;;;;23.15;14.38;;;10.50;96.40;;;;;;5014030;28;20026;-88
2022/11/10 07:54:50;;;;;;;28.17;15.52;;;10.30;96.60;;;;;;5014262;28;20044;-88
2022/11/10 07:57:16;;;;;;;22.83;15.65;;;10.30;96.80;;;;;;5026740;28;20470;-88
2022/11/10 07:59:42;;;;;;;24.42;14.93;;;10.30;97.10;;;;;;5014528;28;20026;-88
2022/11/10 08:02:10;;;;;;;31.48;17.48;;;10.30;97.20;;;;;;5012599;28;20484;-88
2022/11/10 08:04:36;;;;;;;27.83;16.08;;;10.40;97.00;;;;;;5013108;28;20037;-87
2022/11/10 08:07:02;;;;;;;25.80;15.82;;;10.30;97.00;;;;;;5013861;28;20037;-88
2022/11/10 08:09:28;;;;;;;26.25;15.30;;;10.30;96.90;;;;;;5013196;28;20494;-86
2022/11/10 08:11:54;;;;;;;28.88;16.40;;;10.30;96.70;;;;;;5013227;28;20030;-88
2022/11/10 08:14:20;;;;;;;30.27;17.58;;;10.20;97.00;;;;;;5011420;28;20030;-90
2022/11/10 08:16:46;;;;;;;32.63;17.00;;;10.10;97.30;;;;;;5012923;28;20109;-87
2022/11/10 08:19:12;;;;;;;28.08;16.23;;;10.00;97.40;;;;;;5013910;28;20018;-88
2022/11/10 08:21:38;;;;;;;24.88;15.00;;;9.90;97.40;;;;;;5011627;28;20053;-90
2022/11/10 08:24:04;;;;;;;19.75;14.32;;;9.90;97.50;;;;;;5011686;28;20029;-88
2022/11/10 08:26:29;;;;;;;23.65;15.93;;;9.80;97.50;;;;;;5006546;28;20037;-88
2022/11/10 08:28:55;;;;;;;32.95;18.95;;;9.70;97.90;;;;;;5005710;28;20022;-89
2022/11/10 08:31:21;;;;;;;22.65;17.33;;;9.80;98.20;;;;;;5014761;28;20022;-90
2022/11/10 08:33:47;;;;;;;24.80;15.80;;;9.90;97.90;;;;;;5017914;28;20065;-88
2022/11/10 08:36:13;;;;;;;28.88;17.55;;;9.90;97.60;;;;;;5017292;28;20494;-89
2022/11/10 08:38:39;;;;;;;32.28;18.08;;;9.90;97.60;;;;;;5018698;28;20105;-88
2022/11/10 08:41:05;;;;;;;29.60;16.27;;;10.00;97.80;;;;;;5016692;28;20022;-88
2022/11/10 08:43:31;;;;;;;26.38;17.50;;;10.10;97.90;;;;;;4987818;28;20452;-87
2022/11/10 08:45:57;;;;;;;29.05;16.40;;;10.20;97.70;;;;;;5017154;28;20494;-90
2022/11/10 08:48:23;;;;;;;27.98;17.13;;;10.30;97.60;;;;;;5018775;28;20232;-88
2022/11/10 08:50:50;;;;;;;27.95;15.80;;;10.40;97.40;;;;;;5038884;28;20072;-88
2022/11/10 08:53:20;;;;;;;21.63;14.67;;;10.40;97.10;;;;;;5028869;28;20029;-88
2022/11/10 08:55:47;;;;;;;24.63;17.13;;;10.40;97.00;;;;;;5005196;28;20491;-88
2022/11/10 08:58:21;;;;;;;29.38;18.23;;;10.40;97.30;;;;;;5029837;28;20042;-87
2022/11/10 09:00:47;;;;;;;26.20;16.65;;;10.40;97.10;;;;;;5029085;28;20085;-88
2022/11/10 09:03:18;;;;;;;26.52;17.65;;;10.40;97.00;;;;;;5033110;28;20026;-87
2022/11/10 09:05:45;;;;;;;30.20;16.02;;;10.40;96.80;;;;;;5021423;28;20014;-88
2022/11/10 09:08:11;;;;;;;23.30;14.75;;;10.40;96.90;;;;;;5020038;28;20032;-87
2022/11/10 09:10:39;;;;;;;25.45;17.35;;;10.40;97.00;;;;;;5019326;28;20025;-88
2022/11/10 09:13:06;;;;;;;23.92;16.67;;;10.40;96.90;;;;;;5021696;28;20029;-88
2022/11/10 09:15:33;;;;;;;27.55;19.65;;;10.50;96.80;;;;;;5031066;28;20030;-88
2022/11/10 09:18:04;;;;;;;25.25;17.95;;;10.50;96.70;;;;;;5018694;28;20038;-89
2022/11/10 09:20:32;;;;;;;30.15;18.92;;;10.50;96.70;;;;;;5016308;28;20037;-88
2022/11/10 09:23:12;;;;;;;28.20;17.90;;;10.60;96.70;;;;;;5017536;28;20069;-87
2022/11/10 09:25:39;;;;;;;24.38;16.27;;;10.60;96.70;;;;;;5004784;28;20034;-87
2022/11/10 09:28:05;;;;;;;21.45;17.65;;;10.60;96.40;;;;;;5019521;28;20042;-88
2022/11/10 09:30:31;;;;;;;36.03;17.45;;;10.60;96.40;;;;;;5017129;28;20026;-89
2022/11/10 09:32:59;;;;;;;27.80;17.38;;;10.60;96.40;;;;;;5002812;28;20476;-88
2022/11/10 09:35:25;;;;;;;;;;;10.70;96.30;;;;;;5015264;28;20484;-88
2022/11/10 09:37:51;;;;;;;25.23;16.70;;;10.70;96.50;;;;;;4998616;28;20012;-85
2022/11/10 09:40:24;;;;;;;22.35;16.67;;;10.80;96.40;;;;;;5016709;28;20053;-88
2022/11/10 09:42:55;;;;;;;26.42;18.55;;;10.80;96.10;;;;;;5016751;28;20036;-88
2022/11/10 09:45:35;;;;;;;23.73;17.23;;;10.80;96.10;;;;;;5015379;28;20025;-87
2022/11/10 09:48:14;;;;;;;28.17;18.42;;;10.80;96.10;;;;;;5016920;28;20018;-89
2022/11/10 09:50:52;;;;;;;30.02;20.85;;;10.70;96.00;;;;;;5018243;28;20080;-89
2022/11/10 09:53:49;;;;;;;27.27;18.33;;;10.60;96.30;;;;;;5017843;28;20018;-88
2022/11/10 09:56:34;;;;;;;33.55;20.00;;;10.60;96.40;;;;;;5005755;28;20036;-88
2022/11/10 09:59:09;;;;;;;28.65;17.15;;;10.60;96.50;;;;;;5015639;28;20022;-87
2022/11/10 10:01:58;;;;;;;28.77;18.38;;;10.50;96.30;;;;;;5015127;28;20029;-87
2022/11/10 10:04:43;;;;;;;29.75;19.23;;;10.40;96.50;;;;;;4995979;28;20105;-87
2022/11/10 10:07:17;;;;;;;29.95;18.90;;;10.40;96.70;;;;;;5012762;28;20553;-89
2022/11/10 10:10:14;;;;;;;31.98;20.27;;;10.50;96.70;;;;;;5007114;28;20030;-90
2022/11/10 10:13:05;;;;;;;28.55;19.33;;;10.60;96.70;;;;;;4998091;28;20076;-88
2022/11/10 10:15:55;;;;;;;34.92;18.98;;;10.70;96.40;;;;;;4963591;28;20129;-87
2022/11/10 10:18:47;;;;;;;24.58;16.48;;;10.80;96.30;;;;;;5013951;28;20452;-89
2022/11/10 10:21:18;;;;;;;27.70;18.10;;;10.70;96.10;;;;;;5021589;28;20057;-87
2022/11/10 10:23:57;;;;;;;28.50;18.95;;;10.70;96.30;;;;;;5019154;28;20033;-89
2022/11/10 10:26:35;;;;;;;31.67;19.65;;;10.70;96.40;;;;;;5024581;28;20180;-88
2022/11/10 10:29:08;;;;;;;26.60;18.88;;;10.70;96.40;;;;;;5009658;28;20026;-88
2022/11/10 10:31:39;;;;;;;30.77;18.63;;;10.70;96.30;;;;;;4994629;28;20025;-88
2022/11/10 10:34:17;;;;;;;28.05;18.92;;;10.70;96.20;;;;;;5022379;28;20419;-91
2022/11/10 10:36:44;;;;;;;29.83;19.40;;;10.70;96.30;;;;;;5016843;28;20064;-88
2022/11/10 10:39:50;;;;;;;35.85;20.42;;;10.70;96.40;;;;;;5026853;28;20017;-87
2022/11/10 10:42:34;;;;;;;32.78;20.08;;;10.70;96.50;;;;;;4950376;29;20055;-87
2022/11/10 10:45:22;;;;;;;25.80;18.00;;;10.80;96.40;;;;;;4956017;28;20445;-88
2022/11/10 10:47:51;;;;;;;31.73;19.58;;;10.80;96.30;;;;;;4972850;29;20078;-87
2022/11/10 10:50:31;;;;;;;29.05;18.98;;;10.90;96.40;;;;;;4937929;28;20134;-86
2022/11/10 10:53:20;;;;;;;24.02;16.95;;;11.00;96.20;;;;;;4952960;28;20035;-87
2022/11/10 10:56:03;;;;;;;32.97;19.23;;;11.00;96.10;;;;;;4953548;28;20370;-88
2022/11/10 10:59:07;;;;;;;27.15;17.98;;;11.00;96.00;;;;;;4954086;28;20181;-88
2022/11/10 11:01:36;;;;;;;30.48;20.10;;;11.00;96.10;;;;;;4905627;29;20032;-88
2022/11/10 11:04:30;;;;;;;30.15;20.02;;;10.90;96.00;;;;;;4896922;29;20201;-90
2022/11/10 11:07:02;;;;;;;23.73;17.50;;;10.90;96.10;;;;;;4897097;29;20051;-89
2022/11/10 11:09:39;;;;;;;29.60;19.48;;;10.90;96.10;;;;;;4884893;29;20194;-89
2022/11/10 11:12:12;;;;;;;24.83;17.80;;;11.00;96.20;;;;;;4897412;29;20116;-88
2022/11/10 11:14:38;;;;;;;29.50;19.00;;;10.90;96.10;;;;;;4882465;29;20031;-88
2022/11/10 11:17:18;;;;;;;27.40;19.08;;;10.90;96.10;;;;;;4900645;29;20454;-88
2022/11/10 11:19:44;;;;;;;28.85;19.60;;;10.80;96.20;;;;;;4945436;28;20027;-87
2022/11/10 11:22:37;;;;;;;33.80;19.98;;;10.80;96.30;;;;;;4956876;28;20047;-87
2022/11/10 11:25:31;;;;;;;29.70;19.33;;;10.80;96.30;;;;;;4947012;28;20135;-89
2022/11/10 11:28:21;;;;;;;32.08;19.10;;;10.80;96.30;;;;;;4956421;28;20074;-87
2022/11/10 11:31:04;;;;;;;33.75;21.05;;;10.80;96.30;;;;;;4956930;28;20031;-88
2022/11/10 11:33:39;;;;;;;29.65;20.98;;;10.80;96.30;;;;;;4955839;28;20075;-90
2022/11/10 11:36:30;;;;;;;27.02;19.08;;;10.90;96.40;;;;;;4999168;28;20400;-88
2022/11/10 11:39:30;;;;;;;26.67;19.33;;;10.90;96.30;;;;;;5013958;28;20385;-88
2022/11/10 11:42:27;;;;;;;30.55;21.58;;;10.80;96.30;;;;;;4999894;28;20022;-91
2022/11/10 11:45:14;;;;;;;27.85;18.23;;;10.90;96.40;;;;;;5014822;28;20056;-87
2022/11/10 11:48:07;;;;;;;29.58;19.88;;;10.90;96.40;;;;;;5017173;28;20030;-88
2022/11/10 11:50:49;;;;;;;32.60;22.17;;;10.80;96.40;;;;;;5016710;28;20053;-88
2022/11/10 11:53:29;;;;;;;35.88;20.83;;;10.70;96.50;;;;;;5015517;28;20054;-88
2022/11/10 11:56:22;;;;;;;34.03;18.73;;;10.70;96.60;;;;;;5013574;28;20125;-87
2022/11/10 11:59:06;;;;;;;34.08;17.63;;;10.70;96.60;;;;;;5009302;28;20042;-88
2022/11/10 12:01:57;;;;;;;25.95;18.75;;;10.70;96.50;;;;;;4995772;28;20056;-86
2022/11/10 12:04:25;;;;;;;31.35;20.13;;;10.70;96.60;;;;;;5001076;28;20033;-89
2022/11/10 12:07:17;;;;;;;34.00;19.58;;;10.70;96.70;;;;;;5016872;28;20026;-88
2022/11/10 12:10:29;;;;;;;30.25;17.80;;;10.80;96.70;;;;;;5018975;28;20426;-87
2022/11/10 12:13:24;;;;;;;28.88;19.20;;;10.80;96.70;;;;;;5002755;28;20121;-88
2022/11/10 12:16:12;;;;;;;27.85;20.58;;;10.80;96.60;;;;;;4996596;28;20034;-88
2022/11/10 12:19:04;;;;;;;29.58;19.33;;;10.80;96.60;;;;;;5028009;28;20125;-87
2022/11/10 12:21:56;;;;;;;34.47;21.92;;;10.70;96.50;;;;;;5015316;28;20049;-87
2022/11/10 12:24:40;;;;;;;32.67;20.20;;;10.70;96.70;;;;;;5025723;28;20037;-88
2022/11/10 12:27:12;;;;;;;29.80;18.48;;;10.70;96.70;;;;;;5019546;28;20032;-87
2022/11/10 12:29:47;;;;;;;29.40;20.10;;;10.70;96.80;;;;;;5000493;28;20045;-90
2022/11/10 12:32:27;;;;;;;34.95;21.48;;;10.70;96.90;;;;;;5017451;28;20115;-89
2022/11/10 12:35:13;;;;;;;33.45;20.80;;;10.70;96.90;;;;;;5002323;28;20433;-87
2022/11/10 12:37:52;;;;;;;34.05;21.00;;;10.70;97.00;;;;;;5002840;28;20565;-88
2022/11/10 12:40:22;;;;;;;28.27;19.77;;;10.70;96.90;;;;;;4999896;28;20061;-87
2022/11/10 12:43:21;;;;;;;27.98;20.55;;;10.70;96.80;;;;;;5017439;28;20040;-87
2022/11/10 12:46:00;;;;;;;26.33;18.98;;;10.70;96.90;;;;;;4975507;28;20116;-89
2022/11/10 12:48:50;;;;;;;27.45;17.38;;;10.70;96.80;;;;;;5018655;28;20033;-89
2022/11/10 12:51:34;;;;;;;36.05;19.58;;;10.70;96.80;;;;;;5027633;28;20029;-88
2022/11/10 12:54:00;;;;;;;31.35;20.05;;;10.60;96.90;;;;;;5006153;28;20028;-87
2022/11/10 12:56:38;;;;;;;34.28;20.98;;;10.50;97.00;;;;;;5017611;28;20376;-89
2022/11/10 12:59:19;;;;;;;30.00;19.33;;;10.50;97.10;;;;;;5017497;28;20032;-88
2022/11/10 13:01:49;;;;;;;31.35;20.25;;;10.50;97.00;;;;;;5020051;28;20034;-87
2022/11/10 13:04:17;;;;;;;33.47;21.88;;;10.50;97.00;;;;;;5000917;28;20022;-88
2022/11/10 13:06:52;;;;;;;32.00;20.80;;;10.50;97.00;;;;;;4996895;28;20034;-88
2022/11/10 13:09:26;;;;;;;35.05;22.50;;;10.50;97.10;;;;;;5017985;28;20076;-86
2022/11/10 13:12:15;;;;;;;36.97;21.85;;;10.50;97.10;;;;;;5018683;28;20029;-88